Terminal Aerodrome Forecast
Issued by NWS

Home | Current Version | Previous Version | Text Only | Print | Product List | Glossary On
Versions: 1 2 3 4 5 6 7 8 9 10 11 12 13 14 15 16 17 18
000
FTUS42 KTAE 221928 CCA
TAFECP
TAF COR
KECP 221928Z 2219/2318 15010KT P6SM BKN011
      TEMPO 2220/2224 3SM TSRA SCT007 BKN015CB
     FM230200 22004KT 1SM -DZ BR OVC007
     FM231200 32008KT P6SM SCT015=

USA.gov is the U.S. government's official web portal to all federal, state and local government web resources and services.